sensor_id;sensor_type;location;lat;lon;timestamp;pressure;altitude;pressure_sealevel;temperature;humidity
67987;BME280;54767;53.800;15.956;2022-07-11T00:00:09;100358.86;;;14.78;70.22
67987;BME280;54767;53.800;15.956;2022-07-11T00:02:57;100354.65;;;14.78;70.21
67987;BME280;54767;53.800;15.956;2022-07-11T00:05:25;100354.09;;;14.79;70.09
67987;BME280;54767;53.800;15.956;2022-07-11T00:07:52;100350.23;;;14.79;70.07
67987;BME280;54767;53.800;15.956;2022-07-11T00:10:19;100351.64;;;14.78;70.06
67987;BME280;54767;53.800;15.956;2022-07-11T00:12:46;100350.77;;;14.77;70.14
67987;BME280;54767;53.800;15.956;2022-07-11T00:15:13;100353.42;;;14.75;70.18
67987;BME280;54767;53.800;15.956;2022-07-11T00:17:40;100358.91;;;14.75;70.20
67987;BME280;54767;53.800;15.956;2022-07-11T00:20:07;100356.79;;;14.76;70.17
67987;BME280;54767;53.800;15.956;2022-07-11T00:22:35;100359.05;;;14.77;70.09
67987;BME280;54767;53.800;15.956;2022-07-11T00:25:02;100354.27;;;14.79;70.00
67987;BME280;54767;53.800;15.956;2022-07-11T00:27:29;100354.09;;;14.79;70.01
67987;BME280;54767;53.800;15.956;2022-07-11T00:29:56;100352.52;;;14.78;69.89
67987;BME280;54767;53.800;15.956;2022-07-11T00:32:24;100351.83;;;14.77;69.93
67987;BME280;54767;53.800;15.956;2022-07-11T00:34:51;100353.96;;;14.76;69.89
67987;BME280;54767;53.800;15.956;2022-07-11T00:37:19;100352.34;;;14.78;69.83
67987;BME280;54767;53.800;15.956;2022-07-11T00:39:46;100349.34;;;14.79;69.82
67987;BME280;54767;53.800;15.956;2022-07-11T00:42:16;100348.27;;;14.79;69.71
67987;BME280;54767;53.800;15.956;2022-07-11T00:44:44;100341.43;;;14.77;69.65
67987;BME280;54767;53.800;15.956;2022-07-11T00:47:11;100340.42;;;14.74;69.69
67987;BME280;54767;53.800;15.956;2022-07-11T00:49:38;100342.05;;;14.70;69.69
67987;BME280;54767;53.800;15.956;2022-07-11T00:52:05;100347.54;;;14.68;69.74
67987;BME280;54767;53.800;15.956;2022-07-11T00:54:32;100348.48;;;14.63;69.68
67987;BME280;54767;53.800;15.956;2022-07-11T00:56:59;100338.64;;;14.61;69.75
67987;BME280;54767;53.800;15.956;2022-07-11T00:59:27;100343.27;;;14.57;69.55
67987;BME280;54767;53.800;15.956;2022-07-11T01:01:56;100340.67;;;14.54;69.67
67987;BME280;54767;53.800;15.956;2022-07-11T01:04:23;100341.92;;;14.51;69.76
67987;BME280;54767;53.800;15.956;2022-07-11T01:06:51;100336.14;;;14.47;69.81
67987;BME280;54767;53.800;15.956;2022-07-11T01:09:19;100331.09;;;14.43;69.80
67987;BME280;54767;53.800;15.956;2022-07-11T01:11:46;100330.98;;;14.38;69.84
67987;BME280;54767;53.800;15.956;2022-07-11T01:14:13;100330.30;;;14.35;69.94
67987;BME280;54767;53.800;15.956;2022-07-11T01:16:40;100327.66;;;14.35;69.96
67987;BME280;54767;53.800;15.956;2022-07-11T01:19:07;100329.27;;;14.34;70.03
67987;BME280;54767;53.800;15.956;2022-07-11T01:21:37;100324.02;;;14.32;70.00
67987;BME280;54767;53.800;15.956;2022-07-11T01:24:08;100326.52;;;14.29;70.13
67987;BME280;54767;53.800;15.956;2022-07-11T01:26:36;100325.31;;;14.25;70.23
67987;BME280;54767;53.800;15.956;2022-07-11T01:29:09;100328.86;;;14.23;70.19
67987;BME280;54767;53.800;15.956;2022-07-11T01:31:41;100320.06;;;14.23;70.27
67987;BME280;54767;53.800;15.956;2022-07-11T01:34:09;100324.98;;;14.23;70.26
67987;BME280;54767;53.800;15.956;2022-07-11T01:36:37;100318.13;;;14.23;70.27
67987;BME280;54767;53.800;15.956;2022-07-11T01:39:04;100320.95;;;14.22;70.28
67987;BME280;54767;53.800;15.956;2022-07-11T01:41:31;100323.09;;;14.20;70.35
67987;BME280;54767;53.800;15.956;2022-07-11T01:43:58;100319.77;;;14.18;70.51
67987;BME280;54767;53.800;15.956;2022-07-11T01:46:25;100321.89;;;14.16;70.45
67987;BME280;54767;53.800;15.956;2022-07-11T01:48:53;100316.63;;;14.15;70.43
67987;BME280;54767;53.800;15.956;2022-07-11T01:51:22;100319.13;;;14.12;70.39
67987;BME280;54767;53.800;15.956;2022-07-11T01:53:50;100318.09;;;14.10;70.46
67987;BME280;54767;53.800;15.956;2022-07-11T01:56:17;100316.02;;;14.08;70.51
67987;BME280;54767;53.800;15.956;2022-07-11T01:58:48;100323.78;;;14.05;70.63
67987;BME280;54767;53.800;15.956;2022-07-11T02:01:15;100327.86;;;14.02;70.86
67987;BME280;54767;53.800;15.956;2022-07-11T02:03:43;100326.80;;;14.02;70.83
67987;BME280;54767;53.800;15.956;2022-07-11T02:06:10;100327.50;;;14.03;70.85
67987;BME280;54767;53.800;15.956;2022-07-11T02:08:37;100330.64;;;14.06;70.94
67987;BME280;54767;53.800;15.956;2022-07-11T02:11:05;100328.67;;;14.08;70.93
67987;BME280;54767;53.800;15.956;2022-07-11T02:13:32;100326.21;;;14.08;70.93
67987;BME280;54767;53.800;15.956;2022-07-11T02:16:00;100328.85;;;14.08;70.96
67987;BME280;54767;53.800;15.956;2022-07-11T02:18:29;100326.90;;;14.08;71.02
67987;BME280;54767;53.800;15.956;2022-07-11T02:20:57;100330.61;;;14.08;71.05
67987;BME280;54767;53.800;15.956;2022-07-11T02:23:23;100330.25;;;14.08;71.08
67987;BME280;54767;53.800;15.956;2022-07-11T02:25:50;100332.02;;;14.09;71.14
67987;BME280;54767;53.800;15.956;2022-07-11T02:28:18;100329.19;;;14.10;71.05
67987;BME280;54767;53.800;15.956;2022-07-11T02:30:46;100330.06;;;14.10;71.15
67987;BME280;54767;53.800;15.956;2022-07-11T02:33:13;100332.19;;;14.09;71.19
67987;BME280;54767;53.800;15.956;2022-07-11T02:35:45;100331.86;;;14.07;71.21
67987;BME280;54767;53.800;15.956;2022-07-11T02:38:15;100332.59;;;14.05;71.24
67987;BME280;54767;53.800;15.956;2022-07-11T02:40:43;100334.69;;;14.05;71.33
67987;BME280;54767;53.800;15.956;2022-07-11T02:43:13;100333.80;;;14.06;71.43
67987;BME280;54767;53.800;15.956;2022-07-11T02:45:41;100332.20;;;14.08;71.41
67987;BME280;54767;53.800;15.956;2022-07-11T02:48:09;100330.43;;;14.08;71.47
67987;BME280;54767;53.800;15.956;2022-07-11T02:50:35;100337.98;;;14.09;71.60
67987;BME280;54767;53.800;15.956;2022-07-11T02:53:02;100336.94;;;14.09;71.68
67987;BME280;54767;53.800;15.956;2022-07-11T02:55:29;100345.56;;;14.09;71.65
67987;BME280;54767;53.800;15.956;2022-07-11T02:57:57;100345.02;;;14.11;71.65
67987;BME280;54767;53.800;15.956;2022-07-11T03:00:25;100346.23;;;14.13;71.67
67987;BME280;54767;53.800;15.956;2022-07-11T03:02:52;100349.19;;;14.16;71.70
67987;BME280;54767;53.800;15.956;2022-07-11T03:05:20;100350.75;;;14.18;71.69
67987;BME280;54767;53.800;15.956;2022-07-11T03:07:48;100347.21;;;14.19;71.79
67987;BME280;54767;53.800;15.956;2022-07-11T03:10:15;100347.55;;;14.20;71.82
67987;BME280;54767;53.800;15.956;2022-07-11T03:12:42;100359.69;;;14.20;71.94
67987;BME280;54767;53.800;15.956;2022-07-11T03:15:10;100353.71;;;14.20;71.85
67987;BME280;54767;53.800;15.956;2022-07-11T03:17:38;100356.16;;;14.21;71.89
67987;BME280;54767;53.800;15.956;2022-07-11T03:20:06;100359.67;;;14.22;71.91
67987;BME280;54767;53.800;15.956;2022-07-11T03:22:34;100361.61;;;14.22;72.15
67987;BME280;54767;53.800;15.956;2022-07-11T03:25:03;100360.74;;;14.21;72.29
67987;BME280;54767;53.800;15.956;2022-07-11T03:27:33;100362.66;;;14.22;72.29
67987;BME280;54767;53.800;15.956;2022-07-11T03:30:00;100358.25;;;14.23;72.40
67987;BME280;54767;53.800;15.956;2022-07-11T03:32:27;100360.70;;;14.26;72.46
67987;BME280;54767;53.800;15.956;2022-07-11T03:34:55;100361.90;;;14.29;72.47
67987;BME280;54767;53.800;15.956;2022-07-11T03:37:41;100363.61;;;14.33;72.46
67987;BME280;54767;53.800;15.956;2022-07-11T03:40:09;100364.98;;;14.35;72.57
67987;BME280;54767;53.800;15.956;2022-07-11T03:42:36;100366.02;;;14.37;72.61
67987;BME280;54767;53.800;15.956;2022-07-11T03:45:05;100363.20;;;14.38;72.74
67987;BME280;54767;53.800;15.956;2022-07-11T03:47:32;100363.70;;;14.40;72.68
67987;BME280;54767;53.800;15.956;2022-07-11T03:49:59;100363.84;;;14.43;72.90
67987;BME280;54767;53.800;15.956;2022-07-11T03:52:27;100365.73;;;14.46;72.89
67987;BME280;54767;53.800;15.956;2022-07-11T03:54:54;100365.52;;;14.49;72.82
67987;BME280;54767;53.800;15.956;2022-07-11T03:57:21;100365.16;;;14.52;73.04
67987;BME280;54767;53.800;15.956;2022-07-11T03:59:48;100365.70;;;14.53;72.99
67987;BME280;54767;53.800;15.956;2022-07-11T04:02:15;100366.92;;;14.54;72.96
67987;BME280;54767;53.800;15.956;2022-07-11T04:04:42;100370.24;;;14.55;72.87
67987;BME280;54767;53.800;15.956;2022-07-11T04:07:09;100372.16;;;14.58;72.91
67987;BME280;54767;53.800;15.956;2022-07-11T04:09:36;100372.64;;;14.61;72.96
67987;BME280;54767;53.800;15.956;2022-07-11T04:12:04;100376.84;;;14.64;72.91
67987;BME280;54767;53.800;15.956;2022-07-11T04:14:32;100376.08;;;14.66;73.07
67987;BME280;54767;53.800;15.956;2022-07-11T04:16:59;100378.73;;;14.67;72.97
67987;BME280;54767;53.800;15.956;2022-07-11T04:19:26;100376.96;;;14.67;73.09
67987;BME280;54767;53.800;15.956;2022-07-11T04:21:53;100374.64;;;14.69;73.12
67987;BME280;54767;53.800;15.956;2022-07-11T04:24:20;100377.44;;;14.71;73.05
67987;BME280;54767;53.800;15.956;2022-07-11T04:26:47;100377.94;;;14.74;73.09
67987;BME280;54767;53.800;15.956;2022-07-11T04:29:14;100378.78;;;14.77;73.03
67987;BME280;54767;53.800;15.956;2022-07-11T04:31:41;100381.93;;;14.79;73.11
67987;BME280;54767;53.800;15.956;2022-07-11T04:34:09;100384.54;;;14.80;73.12
67987;BME280;54767;53.800;15.956;2022-07-11T04:36:36;100383.30;;;14.81;73.16
67987;BME280;54767;53.800;15.956;2022-07-11T04:39:03;100385.42;;;14.82;73.17
67987;BME280;54767;53.800;15.956;2022-07-11T04:41:30;100389.61;;;14.85;73.31
67987;BME280;54767;53.800;15.956;2022-07-11T04:43:57;100392.02;;;14.89;73.25
67987;BME280;54767;53.800;15.956;2022-07-11T04:46:24;100396.04;;;14.91;73.34
67987;BME280;54767;53.800;15.956;2022-07-11T04:48:51;100394.23;;;14.95;73.60
67987;BME280;54767;53.800;15.956;2022-07-11T04:51:18;100393.27;;;15.00;73.77
67987;BME280;54767;53.800;15.956;2022-07-11T04:53:45;100392.67;;;15.05;73.69
67987;BME280;54767;53.800;15.956;2022-07-11T04:56:13;100393.49;;;15.10;73.63
67987;BME280;54767;53.800;15.956;2022-07-11T04:58:40;100392.55;;;15.15;73.54
67987;BME280;54767;53.800;15.956;2022-07-11T05:01:08;100395.98;;;15.20;73.60
67987;BME280;54767;53.800;15.956;2022-07-11T05:03:35;100400.30;;;15.27;73.51
67987;BME280;54767;53.800;15.956;2022-07-11T05:06:04;100405.38;;;15.30;73.59
67987;BME280;54767;53.800;15.956;2022-07-11T05:08:31;100403.39;;;15.33;73.47
67987;BME280;54767;53.800;15.956;2022-07-11T05:11:03;100404.04;;;15.36;73.39
67987;BME280;54767;53.800;15.956;2022-07-11T05:13:32;100404.16;;;15.41;73.47
67987;BME280;54767;53.800;15.956;2022-07-11T05:15:59;100406.20;;;15.46;73.46
67987;BME280;54767;53.800;15.956;2022-07-11T05:18:26;100407.34;;;15.52;73.49
67987;BME280;54767;53.800;15.956;2022-07-11T05:20:54;100414.44;;;15.60;73.61
67987;BME280;54767;53.800;15.956;2022-07-11T05:23:20;100412.58;;;15.67;73.60
67987;BME280;54767;53.800;15.956;2022-07-11T05:25:47;100412.50;;;15.73;73.37
67987;BME280;54767;53.800;15.956;2022-07-11T05:28:14;100409.09;;;15.76;73.14
67987;BME280;54767;53.800;15.956;2022-07-11T05:30:41;100412.24;;;15.78;73.07
67987;BME280;54767;53.800;15.956;2022-07-11T05:33:08;100414.84;;;15.80;72.94
67987;BME280;54767;53.800;15.956;2022-07-11T05:35:35;100416.20;;;15.85;72.75
67987;BME280;54767;53.800;15.956;2022-07-11T05:38:02;100419.13;;;15.88;72.62
67987;BME280;54767;53.800;15.956;2022-07-11T05:40:29;100420.10;;;15.93;72.73
67987;BME280;54767;53.800;15.956;2022-07-11T05:42:56;100422.13;;;15.99;72.75
67987;BME280;54767;53.800;15.956;2022-07-11T05:45:23;100424.16;;;16.03;72.86
67987;BME280;54767;53.800;15.956;2022-07-11T05:47:50;100429.89;;;16.10;72.87
67987;BME280;54767;53.800;15.956;2022-07-11T05:50:17;100424.01;;;16.12;72.74
67987;BME280;54767;53.800;15.956;2022-07-11T05:52:44;100426.20;;;16.18;72.57
67987;BME280;54767;53.800;15.956;2022-07-11T05:55:11;100427.52;;;16.23;72.51
67987;BME280;54767;53.800;15.956;2022-07-11T05:57:45;100431.10;;;16.30;72.43
67987;BME280;54767;53.800;15.956;2022-07-11T06:00:12;100439.87;;;16.34;72.31
67987;BME280;54767;53.800;15.956;2022-07-11T06:02:39;100445.14;;;16.35;72.09
67987;BME280;54767;53.800;15.956;2022-07-11T06:05:08;100445.10;;;16.37;72.00
67987;BME280;54767;53.800;15.956;2022-07-11T06:07:34;100450.36;;;16.39;71.94
67987;BME280;54767;53.800;15.956;2022-07-11T06:10:26;100449.44;;;16.41;71.81
67987;BME280;54767;53.800;15.956;2022-07-11T06:12:54;100450.48;;;16.42;71.61
67987;BME280;54767;53.800;15.956;2022-07-11T06:15:21;100447.65;;;16.43;71.62
67987;BME280;54767;53.800;15.956;2022-07-11T06:17:48;100445.30;;;16.45;71.65
67987;BME280;54767;53.800;15.956;2022-07-11T06:20:15;100439.62;;;16.47;71.54
67987;BME280;54767;53.800;15.956;2022-07-11T06:22:42;100441.21;;;16.47;71.59
67987;BME280;54767;53.800;15.956;2022-07-11T06:25:09;100438.02;;;16.47;71.60
67987;BME280;54767;53.800;15.956;2022-07-11T06:27:37;100444.85;;;16.50;71.57
67987;BME280;54767;53.800;15.956;2022-07-11T06:30:04;100450.80;;;16.54;71.38
67987;BME280;54767;53.800;15.956;2022-07-11T06:32:31;100450.06;;;16.55;71.15
67987;BME280;54767;53.800;15.956;2022-07-11T06:34:58;100464.39;;;16.54;71.03
67987;BME280;54767;53.800;15.956;2022-07-11T06:37:26;100470.77;;;16.53;71.11
67987;BME280;54767;53.800;15.956;2022-07-11T06:39:53;100474.17;;;16.51;71.08
67987;BME280;54767;53.800;15.956;2022-07-11T06:42:19;100478.09;;;16.50;70.97
67987;BME280;54767;53.800;15.956;2022-07-11T06:44:51;100472.10;;;16.49;71.01
67987;BME280;54767;53.800;15.956;2022-07-11T06:47:19;100472.03;;;16.53;71.23
67987;BME280;54767;53.800;15.956;2022-07-11T06:49:46;100466.64;;;16.57;71.34
67987;BME280;54767;53.800;15.956;2022-07-11T06:52:13;100474.02;;;16.59;71.26
67987;BME280;54767;53.800;15.956;2022-07-11T06:54:41;100471.51;;;16.61;71.25
67987;BME280;54767;53.800;15.956;2022-07-11T06:57:08;100475.92;;;16.62;71.30
67987;BME280;54767;53.800;15.956;2022-07-11T06:59:38;100471.80;;;16.64;71.24
67987;BME280;54767;53.800;15.956;2022-07-11T07:02:06;100473.88;;;16.67;71.43
67987;BME280;54767;53.800;15.956;2022-07-11T07:04:33;100467.55;;;16.75;71.60
67987;BME280;54767;53.800;15.956;2022-07-11T07:07:00;100462.16;;;16.80;71.41
67987;BME280;54767;53.800;15.956;2022-07-11T07:09:29;100459.02;;;16.87;71.05
67987;BME280;54767;53.800;15.956;2022-07-11T07:11:56;100457.35;;;16.90;70.87
67987;BME280;54767;53.800;15.956;2022-07-11T07:14:24;100456.23;;;16.94;71.10
67987;BME280;54767;53.800;15.956;2022-07-11T07:16:51;100453.57;;;17.03;71.74
67987;BME280;54767;53.800;15.956;2022-07-11T07:19:18;100449.21;;;17.16;71.19
67987;BME280;54767;53.800;15.956;2022-07-11T07:21:45;100452.98;;;17.30;70.50
67987;BME280;54767;53.800;15.956;2022-07-11T07:24:12;100451.17;;;17.39;70.09
67987;BME280;54767;53.800;15.956;2022-07-11T07:26:44;100451.84;;;17.49;69.31
67987;BME280;54767;53.800;15.956;2022-07-11T07:29:11;100453.09;;;17.56;68.47
67987;BME280;54767;53.800;15.956;2022-07-11T07:31:38;100455.74;;;17.63;68.24
67987;BME280;54767;53.800;15.956;2022-07-11T07:34:05;100457.13;;;17.65;67.09
67987;BME280;54767;53.800;15.956;2022-07-11T07:36:33;100455.37;;;17.64;67.37
67987;BME280;54767;53.800;15.956;2022-07-11T07:39:00;100463.48;;;17.66;66.94
67987;BME280;54767;53.800;15.956;2022-07-11T07:41:27;100462.60;;;17.66;66.60
67987;BME280;54767;53.800;15.956;2022-07-11T07:43:54;100460.16;;;17.71;66.60
67987;BME280;54767;53.800;15.956;2022-07-11T07:46:21;100462.14;;;17.78;66.19
67987;BME280;54767;53.800;15.956;2022-07-11T07:48:49;100462.45;;;17.81;66.16
67987;BME280;54767;53.800;15.956;2022-07-11T07:51:16;100460.43;;;17.83;66.31
67987;BME280;54767;53.800;15.956;2022-07-11T07:53:43;100461.55;;;17.89;66.29
67987;BME280;54767;53.800;15.956;2022-07-11T07:56:10;100468.98;;;17.96;65.10
67987;BME280;54767;53.800;15.956;2022-07-11T07:58:37;100470.93;;;18.03;64.87
67987;BME280;54767;53.800;15.956;2022-07-11T08:01:06;100474.59;;;18.05;64.58
67987;BME280;54767;53.800;15.956;2022-07-11T08:03:52;100472.80;;;18.06;62.53
67987;BME280;54767;53.800;15.956;2022-07-11T08:06:20;100476.12;;;18.01;62.02
67987;BME280;54767;53.800;15.956;2022-07-11T08:08:48;100476.75;;;17.97;62.85
67987;BME280;54767;53.800;15.956;2022-07-11T08:11:16;100480.35;;;17.95;62.98
67987;BME280;54767;53.800;15.956;2022-07-11T08:13:59;100482.63;;;17.89;62.87
67987;BME280;54767;53.800;15.956;2022-07-11T08:16:28;100478.75;;;17.80;63.26
67987;BME280;54767;53.800;15.956;2022-07-11T08:19:00;100478.52;;;17.73;63.57
67987;BME280;54767;53.800;15.956;2022-07-11T08:21:28;100480.61;;;17.68;63.54
67987;BME280;54767;53.800;15.956;2022-07-11T08:23:56;100485.71;;;17.61;63.78
67987;BME280;54767;53.800;15.956;2022-07-11T08:26:23;100483.40;;;17.54;63.83
67987;BME280;54767;53.800;15.956;2022-07-11T08:29:00;100482.54;;;17.53;64.19
67987;BME280;54767;53.800;15.956;2022-07-11T08:31:27;100486.15;;;17.50;63.99
67987;BME280;54767;53.800;15.956;2022-07-11T08:33:54;100484.27;;;17.47;64.05
67987;BME280;54767;53.800;15.956;2022-07-11T08:36:24;100485.32;;;17.47;64.10
67987;BME280;54767;53.800;15.956;2022-07-11T08:38:53;100490.29;;;17.47;63.95
67987;BME280;54767;53.800;15.956;2022-07-11T08:41:21;100490.84;;;17.46;64.08
67987;BME280;54767;53.800;15.956;2022-07-11T08:43:48;100492.92;;;17.47;64.32
67987;BME280;54767;53.800;15.956;2022-07-11T08:46:17;100492.67;;;17.51;64.48
67987;BME280;54767;53.800;15.956;2022-07-11T08:48:46;100491.25;;;17.51;64.44
67987;BME280;54767;53.800;15.956;2022-07-11T08:51:14;100485.77;;;17.51;64.79
67987;BME280;54767;53.800;15.956;2022-07-11T08:53:42;100485.59;;;17.52;64.49
67987;BME280;54767;53.800;15.956;2022-07-11T08:56:13;100484.93;;;17.49;64.04
67987;BME280;54767;53.800;15.956;2022-07-11T08:58:49;100480.40;;;17.46;64.26
67987;BME280;54767;53.800;15.956;2022-07-11T09:01:28;100483.98;;;17.44;64.31
67987;BME280;54767;53.800;15.956;2022-07-11T09:03:57;100488.98;;;17.42;63.49
67987;BME280;54767;53.800;15.956;2022-07-11T09:06:25;100493.33;;;17.37;63.09
67987;BME280;54767;53.800;15.956;2022-07-11T09:08:57;100498.15;;;17.35;63.53
67987;BME280;54767;53.800;15.956;2022-07-11T09:11:25;100492.69;;;17.34;63.75
67987;BME280;54767;53.800;15.956;2022-07-11T09:13:52;100497.17;;;17.39;64.58
67987;BME280;54767;53.800;15.956;2022-07-11T09:16:20;100488.24;;;17.51;65.09
67987;BME280;54767;53.800;15.956;2022-07-11T09:18:52;100490.55;;;17.66;64.55
67987;BME280;54767;53.800;15.956;2022-07-11T09:21:19;100486.82;;;17.74;64.08
67987;BME280;54767;53.800;15.956;2022-07-11T09:24:05;100485.50;;;17.79;64.42
67987;BME280;54767;53.800;15.956;2022-07-11T09:26:52;100491.20;;;17.86;63.99
67987;BME280;54767;53.800;15.956;2022-07-11T09:29:21;100488.02;;;17.85;63.23
67987;BME280;54767;53.800;15.956;2022-07-11T09:31:50;100492.73;;;17.80;62.04
67987;BME280;54767;53.800;15.956;2022-07-11T09:34:20;100494.20;;;17.78;63.23
67987;BME280;54767;53.800;15.956;2022-07-11T09:36:50;100492.38;;;17.80;62.76
67987;BME280;54767;53.800;15.956;2022-07-11T09:39:20;100495.73;;;17.88;62.36
67987;BME280;54767;53.800;15.956;2022-07-11T09:41:50;100494.62;;;17.97;62.71
67987;BME280;54767;53.800;15.956;2022-07-11T09:44:20;100493.38;;;18.12;63.63
67987;BME280;54767;53.800;15.956;2022-07-11T09:46:51;100497.66;;;18.32;62.95
67987;BME280;54767;53.800;15.956;2022-07-11T09:49:36;100501.48;;;18.41;62.67
67987;BME280;54767;53.800;15.956;2022-07-11T09:52:08;100506.08;;;18.43;60.33
67987;BME280;54767;53.800;15.956;2022-07-11T09:54:55;100502.71;;;18.42;60.54
67987;BME280;54767;53.800;15.956;2022-07-11T09:57:39;100498.04;;;18.51;61.20
67987;BME280;54767;53.800;15.956;2022-07-11T10:00:11;100511.17;;;18.64;61.82
67987;BME280;54767;53.800;15.956;2022-07-11T10:02:39;100509.31;;;18.61;59.41
67987;BME280;54767;53.800;15.956;2022-07-11T10:05:09;100510.05;;;18.53;60.17
67987;BME280;54767;53.800;15.956;2022-07-11T10:07:36;100515.41;;;18.51;60.63
67987;BME280;54767;53.800;15.956;2022-07-11T10:10:05;100507.46;;;18.50;60.11
67987;BME280;54767;53.800;15.956;2022-07-11T10:12:33;100505.25;;;18.53;60.72
67987;BME280;54767;53.800;15.956;2022-07-11T10:15:03;100506.33;;;18.60;61.18
67987;BME280;54767;53.800;15.956;2022-07-11T10:18:02;100518.30;;;18.69;60.37
67987;BME280;54767;53.800;15.956;2022-07-11T10:20:35;100519.48;;;18.65;59.48
67987;BME280;54767;53.800;15.956;2022-07-11T10:30:51;100527.44;;;18.65;58.86
67987;BME280;54767;53.800;15.956;2022-07-11T10:33:19;100520.79;;;18.69;58.71
67987;BME280;54767;53.800;15.956;2022-07-11T10:35:49;100520.65;;;18.75;59.39
67987;BME280;54767;53.800;15.956;2022-07-11T10:38:17;100524.38;;;18.82;59.23
67987;BME280;54767;53.800;15.956;2022-07-11T10:43:14;100525.52;;;18.92;57.72
67987;BME280;54767;53.800;15.956;2022-07-11T10:45:54;100526.13;;;18.90;57.82
67987;BME280;54767;53.800;15.956;2022-07-11T10:48:23;100532.95;;;18.79;57.93
67987;BME280;54767;53.800;15.956;2022-07-11T10:51:04;100537.38;;;18.65;57.23
67987;BME280;54767;53.800;15.956;2022-07-11T10:53:43;100537.94;;;18.51;58.10
67987;BME280;54767;53.800;15.956;2022-07-11T10:56:39;100542.52;;;18.51;58.99
67987;BME280;54767;53.800;15.956;2022-07-11T10:59:22;100545.70;;;18.59;58.37
67987;BME280;54767;53.800;15.956;2022-07-11T11:04:56;100542.43;;;18.69;58.42
67987;BME280;54767;53.800;15.956;2022-07-11T11:07:34;100543.08;;;18.79;57.69
67987;BME280;54767;53.800;15.956;2022-07-11T11:23:38;100560.83;;;18.70;56.86
67987;BME280;54767;53.800;15.956;2022-07-11T11:26:18;100561.41;;;18.69;56.89
67987;BME280;54767;53.800;15.956;2022-07-11T11:29:04;100563.70;;;18.62;56.76
67987;BME280;54767;53.800;15.956;2022-07-11T11:31:32;100565.61;;;18.64;57.76
67987;BME280;54767;53.800;15.956;2022-07-11T11:34:01;100570.94;;;18.64;57.67
67987;BME280;54767;53.800;15.956;2022-07-11T11:36:30;100568.14;;;18.62;57.74
67987;BME280;54767;53.800;15.956;2022-07-11T11:38:58;100568.55;;;18.66;57.11
67987;BME280;54767;53.800;15.956;2022-07-11T11:43:54;100568.12;;;18.78;57.71
67987;BME280;54767;53.800;15.956;2022-07-11T11:46:31;100570.00;;;18.86;57.99
67987;BME280;54767;53.800;15.956;2022-07-11T11:49:03;100569.82;;;19.00;57.91
67987;BME280;54767;53.800;15.956;2022-07-11T11:51:32;100577.64;;;19.12;58.12
67987;BME280;54767;53.800;15.956;2022-07-11T11:54:03;100573.38;;;19.25;57.23
67987;BME280;54767;53.800;15.956;2022-07-11T11:56:32;100573.66;;;19.34;56.93
67987;BME280;54767;53.800;15.956;2022-07-11T11:59:05;100582.15;;;19.35;56.80
67987;BME280;54767;53.800;15.956;2022-07-11T12:01:45;100588.67;;;19.30;56.51
67987;BME280;54767;53.800;15.956;2022-07-11T12:04:14;100596.82;;;19.18;55.63
67987;BME280;54767;53.800;15.956;2022-07-11T12:06:44;100593.86;;;19.03;55.94
67987;BME280;54767;53.800;15.956;2022-07-11T12:09:13;100594.52;;;18.98;57.13
67987;BME280;54767;53.800;15.956;2022-07-11T12:11:45;100593.16;;;19.09;58.14
67987;BME280;54767;53.800;15.956;2022-07-11T12:14:13;100592.55;;;19.25;57.76
67987;BME280;54767;53.800;15.956;2022-07-11T12:19:17;100603.26;;;19.35;55.98
67987;BME280;54767;53.800;15.956;2022-07-11T12:21:50;100598.71;;;19.39;55.77
67987;BME280;54767;53.800;15.956;2022-07-11T12:24:20;100597.95;;;19.47;56.12
67987;BME280;54767;53.800;15.956;2022-07-11T12:26:48;100603.30;;;19.58;55.80
67987;BME280;54767;53.800;15.956;2022-07-11T12:34:15;100589.70;;;19.69;54.60
67987;BME280;54767;53.800;15.956;2022-07-11T12:36:43;100594.53;;;19.67;54.16
67987;BME280;54767;53.800;15.956;2022-07-11T12:39:25;100602.84;;;19.55;54.70
67987;BME280;54767;53.800;15.956;2022-07-11T12:41:53;100600.69;;;19.50;54.69
67987;BME280;54767;53.800;15.956;2022-07-11T12:44:26;100610.08;;;19.51;54.51
67987;BME280;54767;53.800;15.956;2022-07-11T12:47:14;100608.55;;;19.55;53.30
67987;BME280;54767;53.800;15.956;2022-07-11T12:49:42;100606.49;;;19.52;53.74
67987;BME280;54767;53.800;15.956;2022-07-11T12:52:13;100611.42;;;19.54;54.78
67987;BME280;54767;53.800;15.956;2022-07-11T12:54:41;100612.60;;;19.56;54.72
67987;BME280;54767;53.800;15.956;2022-07-11T12:57:08;100620.90;;;19.57;53.32
67987;BME280;54767;53.800;15.956;2022-07-11T12:59:39;100614.83;;;19.59;53.92
67987;BME280;54767;53.800;15.956;2022-07-11T13:02:09;100614.11;;;19.59;52.96
67987;BME280;54767;53.800;15.956;2022-07-11T13:04:46;100613.56;;;19.53;52.80
67987;BME280;54767;53.800;15.956;2022-07-11T13:10:54;100608.70;;;19.61;53.88
67987;BME280;54767;53.800;15.956;2022-07-11T13:13:33;100613.66;;;19.69;53.69
67987;BME280;54767;53.800;15.956;2022-07-11T13:16:01;100617.17;;;19.71;53.97
67987;BME280;54767;53.800;15.956;2022-07-11T13:18:31;100606.80;;;19.79;53.66
67987;BME280;54767;53.800;15.956;2022-07-11T13:20:59;100610.64;;;19.81;53.16
67987;BME280;54767;53.800;15.956;2022-07-11T13:23:28;100618.11;;;19.75;52.54
67987;BME280;54767;53.800;15.956;2022-07-11T13:25:56;100617.27;;;19.74;52.52
67987;BME280;54767;53.800;15.956;2022-07-11T13:28:25;100624.96;;;19.65;51.43
67987;BME280;54767;53.800;15.956;2022-07-11T13:30:52;100624.42;;;19.52;52.05